Terminal Aerodrome Forecast
Issued by NWS

Home | Current Version | Previous Version | Text Only | Print | Product List | Glossary On
Versions: 1 2 3 4 5 6 7 8 9 10 11 12 13 14 15 16 17 18 19 20 21 22 23
000
FTUS46 KSGX 242300
TAFCRQ
TAF
KCRQ 242339Z 2500/2524 VRB04KT P6SM FEW001 FEW060
     FM250600 VRB03KT 1SM BR BKN002
     FM250700 VRB03KT 1/4SM FG VV001
     FM251500 VRB04KT 2SM BR OVC003
     FM251800 25006KT P6SM FEW006=

USA.gov is the U.S. government's official web portal to all federal, state and local government web resources and services.